EZY730 EGJJ-EGCC
Flight info
| Callsign | EZY730 |
|---|---|
| Flight time | 0h 57m |
| Altitude | 32000 |
| Route | BENIX G27 AKIKI UN867 AVANT UM184 HEMEL T420 ELVOS |
| Aircraft | A320/M-SDE3FGHIRWY/LB1 |
Departure
| Time | 2026-05-04 17:54 |
|---|---|
| Airport | Jersey Airport (EGJJ) |
Arrival
| Time | 2026-05-04 18:52 |
|---|---|
| Airport | Manchester Airport (EGCC) |
| Time | Latitude | Longitude | Altitude | Speed | Heading |
|---|---|---|---|---|---|
| 2026-05-04 17:34 | 49.20546 | -2.19859 | 281 ft | 0 kts | 175° |
| 2026-05-04 17:48 | 49.20557 | -2.19861 | 280 ft | 4 kts | 177° |
| 2026-05-04 17:48 | 49.20575 | -2.19861 | 284 ft | 0 kts | 181° |
| 2026-05-04 17:49 | 49.20577 | -2.19861 | 280 ft | 2 kts | 180° |
| 2026-05-04 17:49 | 49.20594 | -2.19861 | 284 ft | 2 kts | 194° |
| 2026-05-04 17:49 | 49.20607 | -2.19847 | 288 ft | 2 kts | 262° |
| 2026-05-04 17:50 | 49.20607 | -2.19840 | 287 ft | 0 kts | 264° |
| 2026-05-04 17:51 | 49.20607 | -2.19841 | 287 ft | 2 kts | 264° |
| 2026-05-04 17:51 | 49.20594 | -2.19909 | 283 ft | 8 kts | 237° |
| 2026-05-04 17:52 | 49.20550 | -2.19934 | 280 ft | 6 kts | 192° |
| 2026-05-04 17:52 | 49.20525 | -2.19999 | 280 ft | 15 kts | 271° |
| 2026-05-04 17:52 | 49.20568 | -2.20198 | 280 ft | 26 kts | 282° |
| 2026-05-04 17:52 | 49.20615 | -2.20470 | 280 ft | 23 kts | 284° |
| 2026-05-04 17:53 | 49.20622 | -2.20524 | 283 ft | 0 kts | 280° |
| 2026-05-04 17:53 | 49.20633 | -2.20654 | 280 ft | 17 kts | 301° |
| 2026-05-04 17:53 | 49.20707 | -2.20626 | 278 ft | 15 kts | 67° |
| 2026-05-04 17:53 | 49.20720 | -2.20466 | 279 ft | 17 kts | 82° |
| 2026-05-04 17:54 | 49.20764 | -2.19962 | 281 ft | 89 kts | 82° |
| 2026-05-04 17:54 | 49.20877 | -2.18653 | 390 ft | 145 kts | 81° |
| 2026-05-04 17:54 | 49.20994 | -2.17111 | 1168 ft | 146 kts | 80° |
| 2026-05-04 17:54 | 49.21130 | -2.15569 | 1896 ft | 151 kts | 79° |
| 2026-05-04 17:55 | 49.21286 | -2.13870 | 2258 ft | 171 kts | 80° |
| 2026-05-04 17:55 | 49.21457 | -2.11985 | 2739 ft | 182 kts | 80° |
| 2026-05-04 17:55 | 49.21634 | -2.09995 | 3158 ft | 199 kts | 81° |
| 2026-05-04 17:55 | 49.21830 | -2.07779 | 3540 ft | 223 kts | 81° |
| 2026-05-04 17:56 | 49.22115 | -2.05319 | 3991 ft | 246 kts | 69° |
| 2026-05-04 17:56 | 49.23025 | -2.03042 | 4672 ft | 258 kts | 47° |
| 2026-05-04 17:56 | 49.24259 | -2.00979 | 5543 ft | 265 kts | 47° |
| 2026-05-04 17:56 | 49.25512 | -1.98876 | 6465 ft | 270 kts | 48° |
| 2026-05-04 17:57 | 49.26789 | -1.96720 | 7337 ft | 275 kts | 48° |
| 2026-05-04 17:57 | 49.28084 | -1.94529 | 8217 ft | 279 kts | 48° |
| 2026-05-04 17:57 | 49.29398 | -1.92302 | 9111 ft | 284 kts | 49° |
| 2026-05-04 17:57 | 49.30714 | -1.90067 | 9985 ft | 288 kts | 49° |
| 2026-05-04 17:58 | 49.32096 | -1.87715 | 10447 ft | 308 kts | 49° |
| 2026-05-04 17:58 | 49.33588 | -1.85173 | 10812 ft | 329 kts | 49° |
| 2026-05-04 17:58 | 49.35139 | -1.82534 | 11530 ft | 336 kts | 49° |
| 2026-05-04 17:58 | 49.36713 | -1.79850 | 12385 ft | 339 kts | 49° |
| 2026-05-04 17:59 | 49.38295 | -1.77142 | 13284 ft | 342 kts | 49° |
| 2026-05-04 17:59 | 49.39890 | -1.74403 | 14204 ft | 344 kts | 49° |
| 2026-05-04 17:59 | 49.43115 | -1.68880 | 15739 ft | 353 kts | 49° |
| 2026-05-04 18:00 | 49.44771 | -1.66046 | 16504 ft | 359 kts | 50° |
| 2026-05-04 18:00 | 49.46430 | -1.63199 | 17262 ft | 364 kts | 50° |
| 2026-05-04 18:00 | 49.48132 | -1.60271 | 18024 ft | 369 kts | 50° |
| 2026-05-04 18:00 | 49.49857 | -1.57300 | 18699 ft | 374 kts | 50° |
| 2026-05-04 18:01 | 49.51605 | -1.54287 | 19334 ft | 379 kts | 50° |
| 2026-05-04 18:01 | 49.53351 | -1.51275 | 19996 ft | 383 kts | 50° |
| 2026-05-04 18:01 | 49.55142 | -1.48187 | 20667 ft | 388 kts | 50° |
| 2026-05-04 18:02 | 49.59542 | -1.43187 | 21881 ft | 403 kts | 26° |
| 2026-05-04 18:02 | 49.62220 | -1.41758 | 22450 ft | 410 kts | 14° |
| 2026-05-04 18:02 | 49.65031 | -1.41141 | 22996 ft | 417 kts | 4° |
| 2026-05-04 18:02 | 49.67958 | -1.40886 | 23524 ft | 421 kts | 4° |
| 2026-05-04 18:03 | 49.70908 | -1.40624 | 23944 ft | 425 kts | 4° |
| 2026-05-04 18:03 | 49.73842 | -1.40364 | 24343 ft | 429 kts | 4° |
| 2026-05-04 18:03 | 49.76835 | -1.40104 | 24765 ft | 431 kts | 5° |
| 2026-05-04 18:03 | 49.79841 | -1.39844 | 25152 ft | 434 kts | 5° |
| 2026-05-04 18:04 | 49.82873 | -1.39577 | 25528 ft | 437 kts | 5° |
| 2026-05-04 18:04 | 49.85917 | -1.39302 | 25879 ft | 440 kts | 5° |
| 2026-05-04 18:04 | 49.92076 | -1.38741 | 26298 ft | 452 kts | 5° |
| 2026-05-04 18:05 | 49.95246 | -1.38455 | 26430 ft | 459 kts | 5° |
| 2026-05-04 18:05 | 49.98468 | -1.38164 | 26553 ft | 466 kts | 5° |
| 2026-05-04 18:05 | 50.01710 | -1.37616 | 26684 ft | 471 kts | 11° |
| 2026-05-04 18:05 | 50.04934 | -1.36821 | 26804 ft | 476 kts | 11° |
| 2026-05-04 18:06 | 50.11562 | -1.35177 | 27063 ft | 484 kts | 10° |
| 2026-05-04 18:06 | 50.14869 | -1.34355 | 27194 ft | 488 kts | 10° |
| 2026-05-04 18:06 | 50.18236 | -1.33519 | 27326 ft | 490 kts | 10° |
| 2026-05-04 18:07 | 50.21608 | -1.32678 | 27456 ft | 492 kts | 10° |
| 2026-05-04 18:07 | 50.24984 | -1.31837 | 27590 ft | 492 kts | 10° |
| 2026-05-04 18:07 | 50.28390 | -1.30983 | 27724 ft | 493 kts | 10° |
| 2026-05-04 18:07 | 50.31779 | -1.30131 | 27859 ft | 494 kts | 10° |
| 2026-05-04 18:08 | 50.35137 | -1.29285 | 27995 ft | 494 kts | 10° |
| 2026-05-04 18:08 | 50.38548 | -1.28423 | 28128 ft | 494 kts | 10° |
| 2026-05-04 18:08 | 50.41941 | -1.27564 | 28266 ft | 495 kts | 10° |
| 2026-05-04 18:08 | 50.45347 | -1.26704 | 28404 ft | 495 kts | 10° |
| 2026-05-04 18:09 | 50.51868 | -1.23630 | 28673 ft | 491 kts | 28° |
| 2026-05-04 18:09 | 50.57708 | -1.18114 | 28957 ft | 489 kts | 34° |
| 2026-05-04 18:10 | 50.60594 | -1.15245 | 29097 ft | 490 kts | 34° |
| 2026-05-04 18:10 | 50.63475 | -1.12371 | 29236 ft | 490 kts | 34° |
| 2026-05-04 18:10 | 50.66360 | -1.09488 | 29376 ft | 490 kts | 34° |
| 2026-05-04 18:10 | 50.69209 | -1.06642 | 29518 ft | 491 kts | 34° |
| 2026-05-04 18:11 | 50.72102 | -1.03750 | 29659 ft | 492 kts | 34° |
| 2026-05-04 18:11 | 50.75000 | -1.00848 | 29806 ft | 493 kts | 34° |
| 2026-05-04 18:11 | 50.77897 | -0.97945 | 29951 ft | 493 kts | 34° |
| 2026-05-04 18:11 | 50.80821 | -0.95105 | 30124 ft | 493 kts | 30° |
| 2026-05-04 18:12 | 50.83939 | -0.92852 | 30320 ft | 493 kts | 21° |
| 2026-05-04 18:12 | 50.87201 | -0.91148 | 30522 ft | 492 kts | 19° |
| 2026-05-04 18:12 | 50.90424 | -0.89496 | 30737 ft | 491 kts | 18° |
| 2026-05-04 18:12 | 50.93678 | -0.87821 | 30943 ft | 489 kts | 18° |
| 2026-05-04 18:13 | 50.96925 | -0.86147 | 31138 ft | 489 kts | 18° |
| 2026-05-04 18:13 | 51.00161 | -0.84473 | 31318 ft | 488 kts | 19° |
| 2026-05-04 18:13 | 51.06567 | -0.81130 | 31683 ft | 487 kts | 19° |
| 2026-05-04 18:14 | 51.09780 | -0.79449 | 31867 ft | 486 kts | 19° |
| 2026-05-04 18:14 | 51.13011 | -0.77758 | 32051 ft | 486 kts | 19° |
| 2026-05-04 18:14 | 51.16219 | -0.76078 | 32237 ft | 485 kts | 19° |
| 2026-05-04 18:15 | 51.22596 | -0.72736 | 32606 ft | 484 kts | 19° |
| 2026-05-04 18:15 | 51.28990 | -0.69385 | 32976 ft | 483 kts | 19° |
| 2026-05-04 18:16 | 51.35391 | -0.66017 | 33023 ft | 482 kts | 19° |
| 2026-05-04 18:16 | 51.41725 | -0.62672 | 33029 ft | 481 kts | 18° |
| 2026-05-04 18:17 | 51.51281 | -0.57606 | 33029 ft | 481 kts | 19° |
| 2026-05-04 18:18 | 51.60788 | -0.52537 | 33029 ft | 481 kts | 18° |
| 2026-05-04 18:18 | 51.67149 | -0.49144 | 33032 ft | 481 kts | 18° |
| 2026-05-04 18:18 | 51.70338 | -0.47440 | 32842 ft | 482 kts | 18° |
| 2026-05-04 18:19 | 51.75671 | -0.44881 | 32351 ft | 481 kts | 9° |
| 2026-05-04 18:19 | 51.78877 | -0.44476 | 32073 ft | 480 kts | 357° |
| 2026-05-04 18:19 | 51.83351 | -0.45605 | 31721 ft | 476 kts | 341° |
| 2026-05-04 18:20 | 51.86395 | -0.47627 | 31462 ft | 472 kts | 329° |
| 2026-05-04 18:20 | 51.88309 | -0.49438 | 31287 ft | 471 kts | 327° |
| 2026-05-04 18:20 | 51.91082 | -0.52141 | 31052 ft | 472 kts | 327° |
| 2026-05-04 18:20 | 51.93897 | -0.54891 | 30796 ft | 472 kts | 327° |
| 2026-05-04 18:21 | 51.96711 | -0.57647 | 30545 ft | 472 kts | 327° |
| 2026-05-04 18:21 | 51.99532 | -0.60409 | 30302 ft | 472 kts | 327° |
| 2026-05-04 18:21 | 52.02318 | -0.63132 | 30051 ft | 463 kts | 327° |
| 2026-05-04 18:21 | 52.05068 | -0.65824 | 29771 ft | 458 kts | 327° |
| 2026-05-04 18:22 | 52.07755 | -0.68459 | 29483 ft | 455 kts | 327° |
| 2026-05-04 18:22 | 52.10470 | -0.71128 | 29199 ft | 455 kts | 327° |
| 2026-05-04 18:22 | 52.13178 | -0.73802 | 28924 ft | 455 kts | 327° |
| 2026-05-04 18:22 | 52.15896 | -0.76484 | 28637 ft | 455 kts | 327° |
| 2026-05-04 18:23 | 52.18606 | -0.79154 | 28360 ft | 454 kts | 327° |
| 2026-05-04 18:23 | 52.21309 | -0.81825 | 28085 ft | 452 kts | 326° |
| 2026-05-04 18:23 | 52.23993 | -0.84485 | 27813 ft | 451 kts | 326° |
| 2026-05-04 18:23 | 52.26646 | -0.87118 | 27550 ft | 449 kts | 326° |
| 2026-05-04 18:24 | 52.29306 | -0.89762 | 27291 ft | 446 kts | 326° |
| 2026-05-04 18:24 | 52.31948 | -0.92393 | 27029 ft | 444 kts | 326° |
| 2026-05-04 18:24 | 52.34579 | -0.95011 | 26769 ft | 442 kts | 326° |
| 2026-05-04 18:24 | 52.37201 | -0.97625 | 26512 ft | 440 kts | 326° |
| 2026-05-04 18:25 | 52.39812 | -1.00232 | 26262 ft | 439 kts | 326° |
| 2026-05-04 18:25 | 52.42412 | -1.02835 | 25785 ft | 437 kts | 326° |
| 2026-05-04 18:25 | 52.44965 | -1.05395 | 25198 ft | 433 kts | 325° |
| 2026-05-04 18:25 | 52.47524 | -1.07963 | 24635 ft | 429 kts | 325° |
| 2026-05-04 18:26 | 52.50067 | -1.10517 | 24073 ft | 425 kts | 324° |
| 2026-05-04 18:26 | 52.52586 | -1.13051 | 23530 ft | 421 kts | 324° |
| 2026-05-04 18:26 | 52.55076 | -1.15560 | 22956 ft | 417 kts | 324° |
| 2026-05-04 18:26 | 52.57515 | -1.18018 | 22478 ft | 414 kts | 325° |
| 2026-05-04 18:27 | 52.59969 | -1.20493 | 21988 ft | 411 kts | 325° |
| 2026-05-04 18:27 | 52.62390 | -1.22939 | 21523 ft | 404 kts | 325° |
| 2026-05-04 18:27 | 52.64774 | -1.25353 | 21062 ft | 399 kts | 325° |
| 2026-05-04 18:27 | 52.67103 | -1.27714 | 20603 ft | 395 kts | 325° |
| 2026-05-04 18:28 | 52.69432 | -1.30078 | 20143 ft | 391 kts | 326° |
| 2026-05-04 18:28 | 52.71743 | -1.32426 | 19630 ft | 388 kts | 326° |
| 2026-05-04 18:28 | 52.74046 | -1.34771 | 19120 ft | 387 kts | 326° |
| 2026-05-04 18:28 | 52.76344 | -1.37110 | 18590 ft | 386 kts | 327° |
| 2026-05-04 18:29 | 52.78599 | -1.39409 | 18031 ft | 385 kts | 327° |
| 2026-05-04 18:29 | 52.80878 | -1.41736 | 17492 ft | 382 kts | 327° |
| 2026-05-04 18:29 | 52.83134 | -1.44043 | 16973 ft | 379 kts | 327° |
| 2026-05-04 18:29 | 52.85370 | -1.46335 | 16455 ft | 376 kts | 327° |
| 2026-05-04 18:30 | 52.89787 | -1.50880 | 15427 ft | 371 kts | 327° |
| 2026-05-04 18:30 | 52.91980 | -1.53135 | 14925 ft | 369 kts | 327° |
| 2026-05-04 18:30 | 52.94134 | -1.55350 | 14425 ft | 367 kts | 327° |
| 2026-05-04 18:31 | 52.96297 | -1.57574 | 13928 ft | 365 kts | 327° |
| 2026-05-04 18:31 | 52.98447 | -1.59792 | 13388 ft | 362 kts | 327° |
| 2026-05-04 18:31 | 53.00575 | -1.61992 | 12894 ft | 358 kts | 327° |
| 2026-05-04 18:31 | 53.02679 | -1.64168 | 12408 ft | 354 kts | 327° |
| 2026-05-04 18:32 | 53.04732 | -1.66379 | 11974 ft | 349 kts | 321° |
| 2026-05-04 18:32 | 53.06468 | -1.69074 | 11844 ft | 333 kts | 310° |
| 2026-05-04 18:32 | 53.07947 | -1.71948 | 11713 ft | 320 kts | 309° |
| 2026-05-04 18:32 | 53.09350 | -1.74661 | 11587 ft | 309 kts | 310° |
| 2026-05-04 18:33 | 53.10737 | -1.77338 | 11451 ft | 298 kts | 310° |
| 2026-05-04 18:33 | 53.12079 | -1.79930 | 11132 ft | 295 kts | 310° |
| 2026-05-04 18:33 | 53.13417 | -1.82519 | 10815 ft | 292 kts | 310° |
| 2026-05-04 18:33 | 53.14740 | -1.85085 | 10464 ft | 291 kts | 310° |
| 2026-05-04 18:34 | 53.16038 | -1.87606 | 10105 ft | 289 kts | 310° |
| 2026-05-04 18:34 | 53.17346 | -1.90159 | 9728 ft | 288 kts | 310° |
| 2026-05-04 18:34 | 53.18646 | -1.92702 | 9337 ft | 286 kts | 310° |
| 2026-05-04 18:34 | 53.19934 | -1.95225 | 8941 ft | 284 kts | 310° |
| 2026-05-04 18:35 | 53.21205 | -1.97719 | 8677 ft | 277 kts | 310° |
| 2026-05-04 18:35 | 53.22433 | -2.00122 | 8546 ft | 266 kts | 310° |
| 2026-05-04 18:35 | 53.23605 | -2.02412 | 8318 ft | 260 kts | 310° |
| 2026-05-04 18:35 | 53.24852 | -2.04604 | 7797 ft | 265 kts | 324° |
| 2026-05-04 18:36 | 53.26562 | -2.05740 | 7372 ft | 268 kts | 353° |
| 2026-05-04 18:36 | 53.28399 | -2.05339 | 7122 ft | 266 kts | 21° |
| 2026-05-04 18:36 | 53.29863 | -2.03590 | 6879 ft | 261 kts | 46° |
| 2026-05-04 18:36 | 53.31021 | -2.01303 | 6679 ft | 254 kts | 50° |
| 2026-05-04 18:37 | 53.32113 | -1.99002 | 6364 ft | 251 kts | 50° |
| 2026-05-04 18:37 | 53.33185 | -1.96721 | 6117 ft | 244 kts | 50° |
| 2026-05-04 18:37 | 53.34205 | -1.94538 | 5838 ft | 238 kts | 50° |
| 2026-05-04 18:37 | 53.35220 | -1.92362 | 5510 ft | 236 kts | 50° |
| 2026-05-04 18:38 | 53.36230 | -1.90193 | 5167 ft | 235 kts | 50° |
| 2026-05-04 18:38 | 53.37230 | -1.88043 | 5010 ft | 233 kts | 50° |
| 2026-05-04 18:38 | 53.38226 | -1.85899 | 5002 ft | 229 kts | 51° |
| 2026-05-04 18:38 | 53.39198 | -1.83809 | 5005 ft | 224 kts | 50° |
| 2026-05-04 18:39 | 53.40114 | -1.81832 | 4998 ft | 210 kts | 50° |
| 2026-05-04 18:39 | 53.40994 | -1.79921 | 4999 ft | 205 kts | 50° |
| 2026-05-04 18:39 | 53.41863 | -1.78028 | 5003 ft | 204 kts | 51° |
| 2026-05-04 18:39 | 53.42731 | -1.76147 | 5005 ft | 203 kts | 49° |
| 2026-05-04 18:40 | 53.43780 | -1.74582 | 5003 ft | 201 kts | 33° |
| 2026-05-04 18:40 | 53.44944 | -1.73283 | 4999 ft | 200 kts | 31° |
| 2026-05-04 18:40 | 53.46096 | -1.72145 | 4995 ft | 191 kts | 17° |
| 2026-05-04 18:40 | 53.47384 | -1.72087 | 5002 ft | 187 kts | 338° |
| 2026-05-04 18:41 | 53.48440 | -1.73314 | 5001 ft | 186 kts | 304° |
| 2026-05-04 18:41 | 53.48847 | -1.75365 | 5010 ft | 188 kts | 276° |
| 2026-05-04 18:41 | 53.48896 | -1.77569 | 5036 ft | 189 kts | 271° |
| 2026-05-04 18:41 | 53.48913 | -1.79747 | 4995 ft | 188 kts | 279° |
| 2026-05-04 18:42 | 53.49479 | -1.81661 | 4997 ft | 185 kts | 313° |
| 2026-05-04 18:42 | 53.50421 | -1.83148 | 4997 ft | 186 kts | 319° |
| 2026-05-04 18:42 | 53.51412 | -1.84554 | 4998 ft | 186 kts | 320° |
| 2026-05-04 18:42 | 53.52407 | -1.85947 | 4999 ft | 186 kts | 320° |
| 2026-05-04 18:43 | 53.53412 | -1.87265 | 4997 ft | 186 kts | 330° |
| 2026-05-04 18:43 | 53.54668 | -1.87618 | 4999 ft | 188 kts | 11° |
| 2026-05-04 18:43 | 53.55777 | -1.86496 | 4995 ft | 191 kts | 50° |
| 2026-05-04 18:43 | 53.56207 | -1.84392 | 4997 ft | 196 kts | 90° |
| 2026-05-04 18:44 | 53.55756 | -1.82278 | 5001 ft | 198 kts | 129° |
| 2026-05-04 18:44 | 53.55043 | -1.81323 | 5001 ft | 199 kts | 155° |
| 2026-05-04 18:44 | 53.53368 | -1.81313 | 4999 ft | 170 kts | 209° |
| 2026-05-04 18:44 | 53.52412 | -1.82354 | 5009 ft | 163 kts | 218° |
| 2026-05-04 18:45 | 53.51539 | -1.83580 | 5010 ft | 166 kts | 227° |
| 2026-05-04 18:45 | 53.50939 | -1.85221 | 4991 ft | 166 kts | 264° |
| 2026-05-04 18:45 | 53.50871 | -1.87167 | 5005 ft | 168 kts | 264° |
| 2026-05-04 18:45 | 53.50698 | -1.89117 | 5006 ft | 169 kts | 263° |
| 2026-05-04 18:46 | 53.50521 | -1.91062 | 5008 ft | 168 kts | 263° |
| 2026-05-04 18:46 | 53.50346 | -1.92987 | 4962 ft | 169 kts | 263° |
| 2026-05-04 18:46 | 53.50164 | -1.94940 | 4814 ft | 168 kts | 261° |
| 2026-05-04 18:46 | 53.49782 | -1.96797 | 4632 ft | 169 kts | 246° |
| 2026-05-04 18:47 | 53.49178 | -1.98489 | 4418 ft | 169 kts | 238° |
| 2026-05-04 18:47 | 53.48490 | -2.00085 | 4195 ft | 168 kts | 235° |
| 2026-05-04 18:47 | 53.47785 | -2.01619 | 3967 ft | 167 kts | 234° |
| 2026-05-04 18:47 | 53.47061 | -2.03154 | 3738 ft | 167 kts | 234° |
| 2026-05-04 18:48 | 53.46338 | -2.04673 | 3517 ft | 166 kts | 234° |
| 2026-05-04 18:48 | 53.45617 | -2.06182 | 3293 ft | 165 kts | 234° |
| 2026-05-04 18:48 | 53.44896 | -2.07689 | 3068 ft | 165 kts | 234° |
| 2026-05-04 18:48 | 53.44184 | -2.09176 | 2844 ft | 168 kts | 234° |
| 2026-05-04 18:49 | 53.43424 | -2.10765 | 2610 ft | 177 kts | 235° |
| 2026-05-04 18:49 | 53.42643 | -2.12392 | 2370 ft | 179 kts | 234° |
| 2026-05-04 18:49 | 53.41863 | -2.14015 | 2116 ft | 178 kts | 235° |
| 2026-05-04 18:49 | 53.41096 | -2.15612 | 1880 ft | 177 kts | 235° |
| 2026-05-04 18:50 | 53.40338 | -2.17187 | 1638 ft | 169 kts | 235° |
| 2026-05-04 18:50 | 53.39612 | -2.18695 | 1406 ft | 163 kts | 234° |
| 2026-05-04 18:50 | 53.38910 | -2.20156 | 1185 ft | 162 kts | 235° |
| 2026-05-04 18:50 | 53.38208 | -2.21615 | 958 ft | 160 kts | 234° |
| 2026-05-04 18:51 | 53.37513 | -2.23057 | 740 ft | 159 kts | 232° |
| 2026-05-04 18:51 | 53.36823 | -2.24488 | 522 ft | 155 kts | 231° |
| 2026-05-04 18:51 | 53.36160 | -2.25866 | 324 ft | 150 kts | 231° |
| 2026-05-04 18:51 | 53.35555 | -2.27121 | 253 ft | 102 kts | 231° |
| 2026-05-04 18:52 | 53.35253 | -2.27748 | 238 ft | 55 kts | 231° |
| 2026-05-04 18:52 | 53.35047 | -2.28179 | 233 ft | 41 kts | 233° |
| 2026-05-04 18:52 | 53.34957 | -2.28513 | 231 ft | 28 kts | 257° |
| 2026-05-04 18:52 | 53.34942 | -2.28684 | 228 ft | 0 kts | 278° |
| 2026-05-04 18:53 | 53.34942 | -2.28685 | 228 ft | 1 kts | 278° |
| 2026-05-04 18:53 | 53.34974 | -2.28742 | 228 ft | 8 kts | 333° |
| 2026-05-04 18:53 | 53.35020 | -2.28721 | 228 ft | 6 kts | 45° |
| 2026-05-04 18:54 | 53.35043 | -2.28684 | 229 ft | 5 kts | 45° |
| 2026-05-04 18:54 | 53.35080 | -2.28610 | 229 ft | 8 kts | 49° |
| 2026-05-04 18:54 | 53.35127 | -2.28514 | 227 ft | 14 kts | 51° |
| 2026-05-04 18:54 | 53.35202 | -2.28364 | 231 ft | 18 kts | 47° |
| 2026-05-04 18:55 | 53.35285 | -2.28232 | 232 ft | 15 kts | 33° |
| 2026-05-04 18:55 | 53.35433 | -2.28157 | 236 ft | 8 kts | 11° |
| 2026-05-04 18:55 | 53.35491 | -2.28118 | 237 ft | 9 kts | 28° |
| 2026-05-04 18:56 | 53.35539 | -2.28066 | 236 ft | 7 kts | 27° |
| 2026-05-04 18:56 | 53.35568 | -2.28030 | 236 ft | 3 kts | 55° |
| 2026-05-04 18:56 | 53.35594 | -2.27972 | 239 ft | 7 kts | 51° |
| 2026-05-04 18:56 | 53.35622 | -2.27912 | 240 ft | 8 kts | 47° |
| 2026-05-04 18:57 | 53.35654 | -2.27891 | 242 ft | 2 kts | 9° |
| 2026-05-04 18:57 | 53.35664 | -2.27890 | 243 ft | 7 kts | 4° |
| 2026-05-04 18:57 | 53.35784 | -2.27865 | 249 ft | 19 kts | 6° |
| 2026-05-04 18:57 | 53.35907 | -2.27848 | 255 ft | 17 kts | 360° |
| 2026-05-04 18:58 | 53.36013 | -2.27932 | 255 ft | 18 kts | 320° |
| 2026-05-04 18:58 | 53.36109 | -2.28075 | 255 ft | 19 kts | 319° |
| 2026-05-04 18:58 | 53.36223 | -2.28113 | 255 ft | 19 kts | 34° |
| 2026-05-04 18:58 | 53.36340 | -2.28007 | 255 ft | 19 kts | 43° |
| 2026-05-04 18:59 | 53.36408 | -2.27901 | 255 ft | 10 kts | 60° |
| 2026-05-04 18:59 | 53.36449 | -2.27821 | 255 ft | 8 kts | 45° |
| 2026-05-04 18:59 | 53.36468 | -2.27790 | 255 ft | 0 kts | 45° |
| 2026-05-04 19:03 | 53.36468 | -2.27789 | 255 ft | 0 kts | 45° |